Time;durP1;ratioP1;P1;durP2;ratioP2;P2;SDS_P1;SDS_P2;PMS_P1;PMS_P2;Temp;Humidity;BMP_temperature;BMP_pressure;BME280_temperature;BME280_humidity;BME280_pressure;Samples;Min_cycle;Max_cycle;Signal;HPM_P1;HPM_P2
2022/05/14 00:01:37;;;;;;;11.02;3.80;;;;;;;10.36;68.60;101943.59;5040969;28;20328;-69
2022/05/14 00:04:07;;;;;;;10.95;3.72;;;;;;;10.35;68.66;101945.38;5045591;28;20033;-68
2022/05/14 00:06:34;;;;;;;9.68;4.13;;;;;;;10.32;68.96;101941.91;5034295;28;20594;-68
2022/05/14 00:09:05;;;;;;;8.85;3.65;;;;;;;10.28;69.04;101940.19;5044877;28;20045;-69
2022/05/14 00:14:21;;;;;;;13.40;3.92;;;;;;;10.23;69.37;101943.75;5044581;28;20096;-68
2022/05/14 00:16:50;;;;;;;10.05;3.85;;;;;;;10.22;69.52;101944.66;5037378;28;20038;-69
2022/05/14 00:19:18;;;;;;;10.18;4.28;;;;;;;10.21;69.35;101939.38;5033481;28;20042;-68
2022/05/14 00:21:45;;;;;;;12.02;4.53;;;;;;;10.21;69.42;101944.66;5036359;28;20530;-67
2022/05/14 00:24:12;;;;;;;12.95;4.43;;;;;;;10.21;69.75;101945.53;5037595;28;20038;-68
2022/05/14 00:26:40;;;;;;;15.35;4.43;;;;;;;10.23;69.86;101940.25;5041327;28;20045;-68
2022/05/14 00:29:08;;;;;;;11.75;4.75;;;;;;;10.25;70.07;101941.97;5044663;28;20045;-68
2022/05/14 00:31:36;;;;;;;9.82;5.03;;;;;;;10.28;70.00;101942.81;5047620;28;20498;-69
2022/05/14 00:34:04;;;;;;;12.63;4.90;;;;;;;10.31;69.96;101948.94;5033387;28;20607;-68
2022/05/14 00:36:32;;;;;;;13.00;4.85;;;;;;;10.33;70.13;101939.25;5037378;28;20547;-68
2022/05/14 00:39:00;;;;;;;14.60;4.88;;;;;;;10.34;70.31;101941.00;5047603;28;20116;-70
2022/05/14 00:41:27;;;;;;;12.73;5.32;;;;;;;10.39;70.42;101943.59;5047326;28;20500;-69
2022/05/14 00:43:58;;;;;;;12.90;5.20;;;;;;;10.45;70.85;101934.75;5044925;28;20065;-69
2022/05/14 00:46:40;;;;;;;12.32;5.10;;;;;;;10.51;70.84;101938.19;5042670;28;20500;-68
2022/05/14 00:49:08;;;;;;;15.13;4.53;;;;;;;10.54;70.37;101935.50;5045656;28;20044;-68
2022/05/14 00:51:36;;;;;;;13.63;4.85;;;;;;;10.57;70.26;101934.59;5045796;28;20129;-68
2022/05/14 00:54:10;;;;;;;10.10;4.75;;;;;;;10.59;70.23;101935.44;5044905;28;20688;-68
2022/05/14 00:56:46;;;;;;;13.23;4.68;;;;;;;10.59;70.33;101930.16;5047957;28;20128;-68
2022/05/14 00:59:22;;;;;;;8.48;4.28;;;;;;;10.57;69.92;101930.19;5045138;28;20425;-66
2022/05/14 01:01:50;;;;;;;12.00;4.70;;;;;;;10.56;70.35;101928.44;5035013;28;20080;-68
2022/05/14 01:04:42;;;;;;;10.38;4.75;;;;;;;10.59;70.17;101924.03;5035096;28;20057;-67
2022/05/14 01:07:24;;;;;;;11.00;4.35;;;;;;;10.58;70.09;101925.81;5035144;28;20581;-67
2022/05/14 01:10:15;;;;;;;11.05;4.90;;;;;;;10.55;70.20;101924.06;5031876;28;20058;-67
2022/05/14 01:12:51;;;;;;;12.65;4.53;;;;;;;10.56;70.15;101935.50;5033027;28;20116;-67
2022/05/14 01:15:24;;;;;;;13.75;4.80;;;;;;;10.56;69.89;101928.44;5050943;28;20150;-69
2022/05/14 01:17:54;;;;;;;16.30;5.10;;;;;;;10.57;69.96;101929.34;5047834;28;20049;-67
2022/05/14 01:20:21;;;;;;;13.98;4.57;;;;;;;10.60;70.18;101921.38;5047924;28;20052;-68
2022/05/14 01:23:05;;;;;;;14.65;4.65;;;;;;;10.64;70.53;101927.47;5042406;28;20053;-69
2022/05/14 01:28:49;;;;;;;12.15;4.70;;;;;;;10.67;70.00;101932.72;5042043;28;20046;-67
2022/05/14 01:31:16;;;;;;;13.45;4.43;;;;;;;10.67;69.99;101930.97;5038943;28;20112;-68
2022/05/14 01:33:47;;;;;;;12.88;4.28;;;;;;;10.68;69.94;101929.19;5044279;28;20041;-68
2022/05/14 01:36:18;;;;;;;12.57;4.97;;;;;;;10.68;69.98;101923.91;5052067;28;20120;-69
2022/05/14 01:38:45;;;;;;;9.98;4.47;;;;;;;10.65;69.91;101923.94;5046206;28;20045;-68
2022/05/14 01:41:16;;;;;;;11.98;4.55;;;;;;;10.65;69.98;101927.47;5049527;28;20041;-68
2022/05/14 01:43:43;;;;;;;11.52;4.55;;;;;;;10.65;69.60;101932.75;5042097;28;20529;-68
2022/05/14 01:46:10;;;;;;;11.35;4.07;;;;;;;10.63;69.54;101926.59;5034107;28;20042;-70
2022/05/14 01:48:38;;;;;;;13.57;4.32;;;;;;;10.61;69.48;101924.88;5035884;28;20563;-69
2022/05/14 01:51:05;;;;;;;7.75;4.05;;;;;;;10.60;69.53;101928.41;5033364;28;20507;-68
2022/05/14 01:53:33;;;;;;;14.30;4.60;;;;;;;10.58;69.55;101923.16;5038936;28;20055;-68
2022/05/14 01:56:00;;;;;;;13.93;3.90;;;;;;;10.56;69.29;101931.09;5043460;28;20037;-69
2022/05/14 01:58:38;;;;;;;10.90;4.05;;;;;;;10.54;69.21;101934.63;5042526;28;20128;-69
2022/05/14 02:01:18;;;;;;;9.70;4.03;;;;;;;10.52;69.51;101936.41;5040956;28;20037;-68
2022/05/14 02:03:53;;;;;;;9.13;3.95;;;;;;;10.51;69.28;101929.41;5048435;28;20267;-67
2022/05/14 02:06:25;;;;;;;10.20;3.97;;;;;;;10.55;69.20;101931.09;5039716;28;20061;-68
2022/05/14 02:08:53;;;;;;;9.15;3.78;;;;;;;10.57;68.97;101929.34;5048415;28;20530;-68
2022/05/14 02:11:22;;;;;;;7.95;3.65;;;;;;;10.59;68.94;101931.94;5046562;28;20041;-69
2022/05/14 02:13:55;;;;;;;11.18;3.97;;;;;;;10.57;68.85;101924.91;5045598;28;20121;-67
2022/05/14 02:16:23;;;;;;;10.88;3.55;;;;;;;10.57;68.88;101926.69;5043880;28;20041;-68
2022/05/14 02:18:50;;;;;;;9.73;3.60;;;;;;;10.62;68.73;101937.19;5033385;28;20658;-67
2022/05/14 02:21:24;;;;;;;13.48;3.72;;;;;;;10.63;68.56;101941.56;5038379;28;20038;-68
2022/05/14 02:23:54;;;;;;;9.02;3.15;;;;;;;10.63;68.52;101941.56;5040979;28;20058;-67
2022/05/14 02:26:22;;;;;;;7.05;3.40;;;;;;;10.59;68.79;101942.50;5045417;28;20045;-66
2022/05/14 02:28:50;;;;;;;8.43;3.28;;;;;;;10.57;68.35;101943.38;5032675;28;20046;-66
2022/05/14 02:31:17;;;;;;;14.52;3.45;;;;;;;10.62;68.55;101937.19;5032435;28;20042;-67
2022/05/14 02:33:50;;;;;;;10.52;3.08;;;;;;;10.64;68.23;101938.91;5035516;28;20112;-67
2022/05/14 02:36:18;;;;;;;8.82;3.30;;;;;;;10.68;68.20;101927.41;5049709;28;20108;-67
2022/05/14 02:38:46;;;;;;;8.40;3.58;;;;;;;10.69;68.00;101937.06;5036047;28;20111;-67
2022/05/14 02:41:14;;;;;;;10.05;3.00;;;;;;;10.70;68.06;101941.44;5046897;28;20041;-66
2022/05/14 02:43:42;;;;;;;10.18;3.38;;;;;;;10.70;68.00;101941.44;5042941;28;20494;-67
2022/05/14 02:46:12;;;;;;;9.68;3.42;;;;;;;10.69;68.09;101937.06;5032637;28;20128;-68
2022/05/14 02:48:41;;;;;;;10.40;3.78;;;;;;;10.65;68.50;101934.47;5033026;28;20045;-67
2022/05/14 02:51:09;;;;;;;7.63;3.70;;;;;;;10.59;68.11;101935.44;5041712;28;20504;-68
2022/05/14 02:53:36;;;;;;;8.55;3.65;;;;;;;10.55;68.59;101942.50;5048633;28;20042;-67
2022/05/14 02:56:03;;;;;;;10.68;3.72;;;;;;;10.52;68.86;101946.97;5032017;28;20082;-69
2022/05/14 03:01:18;;;;;;;11.93;4.07;;;;;;;10.41;69.17;101953.22;5047418;28;20139;-68
2022/05/14 03:03:46;;;;;;;11.57;4.07;;;;;;;10.36;68.85;101946.25;5044728;28;20054;-68
2022/05/14 03:06:16;;;;;;;14.25;4.00;;;;;;;10.32;69.46;101949.81;5045994;28;20062;-67
2022/05/14 03:08:43;;;;;;;9.45;4.55;;;;;;;10.27;69.40;101947.25;5029408;28;20567;-68
2022/05/14 03:11:10;;;;;;;11.02;4.07;;;;;;;10.23;69.23;101937.59;5031147;28;20125;-68
2022/05/14 03:13:38;;;;;;;11.07;3.78;;;;;;;10.20;69.44;101940.25;5033121;28;20077;-66
2022/05/14 03:16:06;;;;;;;9.13;4.10;;;;;;;10.18;69.42;101934.13;5031898;28;20418;-65
2022/05/14 03:18:34;;;;;;;13.98;4.28;;;;;;;10.17;69.73;101937.69;5043522;28;20080;-68
2022/05/14 03:21:01;;;;;;;8.75;4.10;;;;;;;10.14;69.54;101932.44;5039563;28;20072;-68
2022/05/14 03:23:29;;;;;;;12.98;4.38;;;;;;;10.09;69.54;101938.63;5043742;28;20062;-68
2022/05/14 03:25:56;;;;;;;11.80;4.38;;;;;;;10.06;69.78;101937.78;5039772;28;20052;-69
2022/05/14 03:28:23;;;;;;;14.18;4.57;;;;;;;10.04;69.99;101939.56;5031003;28;20077;-68
2022/05/14 03:30:50;;;;;;;11.23;4.70;;;;;;;10.03;70.04;101937.81;5030051;28;20042;-66
2022/05/14 03:33:17;;;;;;;9.90;4.32;;;;;;;10.00;70.08;101940.50;5036756;28;20037;-66
2022/05/14 03:35:44;;;;;;;10.90;4.40;;;;;;;9.95;70.11;101937.91;5048482;28;20052;-66
2022/05/14 03:38:12;;;;;;;11.30;4.60;;;;;;;9.91;70.27;101936.19;5040049;28;20042;-66
2022/05/14 03:40:39;;;;;;;12.77;5.20;;;;;;;9.91;70.92;101936.19;5052907;28;20512;-66
2022/05/14 03:43:06;;;;;;;10.85;4.47;;;;;;;9.87;71.05;101942.38;5039169;28;20143;-68
2022/05/14 03:45:34;;;;;;;12.25;4.50;;;;;;;9.85;70.80;101944.16;5033549;28;20046;-67
2022/05/14 03:48:01;;;;;;;11.02;4.35;;;;;;;9.83;70.68;101952.06;5047496;28;20486;-64
2022/05/14 03:50:28;;;;;;;11.40;4.65;;;;;;;9.81;70.75;101948.59;5036528;28;20077;-63
2022/05/14 03:52:57;;;;;;;13.88;4.95;;;;;;;9.78;70.73;101945.97;5049115;28;20550;-66
2022/05/14 03:55:24;;;;;;;10.55;4.53;;;;;;;9.79;70.79;101943.31;5034401;28;20519;-66
2022/05/14 03:57:51;;;;;;;10.80;4.43;;;;;;;9.82;71.26;101947.66;5047649;28;20064;-66
2022/05/14 04:00:19;;;;;;;14.38;4.85;;;;;;;9.84;70.99;101945.03;5035569;28;20049;-67
2022/05/14 04:02:47;;;;;;;10.80;4.72;;;;;;;9.84;70.71;101939.78;5035435;28;20045;-67
2022/05/14 04:05:15;;;;;;;9.70;4.60;;;;;;;9.84;70.85;101947.69;5048966;28;20827;-67
2022/05/14 04:07:43;;;;;;;12.02;4.25;;;;;;;9.84;70.59;101945.91;5051218;28;20045;-66
2022/05/14 04:10:12;;;;;;;10.32;4.72;;;;;;;9.87;70.78;101942.38;5034404;28;20038;-67
2022/05/14 04:12:43;;;;;;;10.38;4.63;;;;;;;9.90;70.49;101944.97;5033338;28;20576;-67
2022/05/14 04:15:13;;;;;;;8.10;4.07;;;;;;;9.93;70.58;101939.69;5041748;28;20049;-67
2022/05/14 04:17:41;;;;;;;8.98;4.03;;;;;;;9.98;70.88;101950.16;5032172;28;20046;-67
2022/05/14 04:20:09;;;;;;;10.20;4.15;;;;;;;9.96;70.79;101944.94;5057829;28;20045;-66
2022/05/14 04:22:37;;;;;;;12.45;4.40;;;;;;;9.99;70.52;101949.28;5044160;28;20076;-67
2022/05/14 04:25:05;;;;;;;8.50;4.10;;;;;;;10.02;70.47;101939.59;5052924;28;20052;-66
2022/05/14 04:27:34;;;;;;;9.75;4.30;;;;;;;10.08;70.20;101946.56;5048762;28;20401;-67
2022/05/14 04:30:01;;;;;;;11.20;4.50;;;;;;;10.14;70.31;101953.53;5038229;28;20042;-67
2022/05/14 04:32:28;;;;;;;7.53;3.55;;;;;;;10.17;70.19;101953.50;5047518;28;20056;-68
2022/05/14 04:34:56;;;;;;;9.82;3.95;;;;;;;10.22;69.89;101949.03;5040078;28;20713;-68
2022/05/14 04:37:24;;;;;;;12.80;4.43;;;;;;;10.29;69.76;101960.38;5039771;28;20048;-68
2022/05/14 04:39:52;;;;;;;9.35;4.07;;;;;;;10.32;69.54;101958.59;5048186;28;20053;-67
2022/05/14 04:42:20;;;;;;;8.93;4.07;;;;;;;10.37;69.46;101958.53;5034778;28;20056;-67
2022/05/14 04:44:47;;;;;;;8.32;3.65;;;;;;;10.43;69.33;101954.97;5032743;28;20044;-66
2022/05/14 04:47:16;;;;;;;15.35;3.53;;;;;;;10.51;69.06;101967.19;5049073;28;20578;-66
2022/05/14 04:49:47;;;;;;;14.27;3.85;;;;;;;10.66;68.58;101971.41;5047512;28;20056;-66
2022/05/14 04:52:16;;;;;;;7.68;3.83;;;;;;;10.86;68.31;101960.56;5081160;28;20052;-67
2022/05/14 04:54:44;;;;;;;13.07;3.85;;;;;;;11.01;67.71;101966.53;5050723;28;20056;-68
2022/05/14 04:57:11;;;;;;;9.05;3.67;;;;;;;11.16;67.37;101970.72;5048064;28;20717;-68
2022/05/14 04:59:39;;;;;;;10.18;3.63;;;;;;;11.43;66.84;101976.47;5038384;28;20042;-68
2022/05/14 05:04:55;;;;;;;11.40;4.40;;;;;;;11.76;65.69;101980.31;5045149;28;20511;-67
2022/05/14 05:07:23;;;;;;;8.25;3.38;;;;;;;11.84;65.28;101974.06;5048226;28;20037;-67
2022/05/14 05:09:51;;;;;;;10.52;4.00;;;;;;;11.99;65.18;101976.44;5056546;28;20046;-67
2022/05/14 05:12:18;;;;;;;7.93;3.90;;;;;;;12.47;64.26;101972.91;5049215;28;20046;-66
2022/05/14 05:14:45;;;;;;;7.97;3.20;;;;;;;12.89;63.29;101974.66;5044787;28;20054;-67
2022/05/14 05:17:12;;;;;;;6.10;3.47;;;;;;;13.07;62.45;101986.63;5050105;28;20030;-66
2022/05/14 05:19:39;;;;;;;5.25;3.35;;;;;;;13.43;61.91;101989.34;5041798;28;20041;-67
2022/05/14 05:22:06;;;;;;;10.45;3.53;;;;;;;13.89;60.06;101987.31;5035005;28;20136;-67
2022/05/14 05:24:34;;;;;;;7.50;3.53;;;;;;;14.43;58.86;101988.53;5040840;28;20046;-72
2022/05/14 05:27:01;;;;;;;17.40;4.20;;;;;;;15.34;57.50;101982.31;5039002;28;20056;-70
2022/05/14 05:29:28;;;;;;;12.88;3.83;;;;;;;16.15;55.35;101987.59;5042610;28;20835;-69
2022/05/14 05:31:55;;;;;;;9.77;3.70;;;;;;;16.73;53.74;101991.69;5035046;28;20037;-69
2022/05/14 05:34:22;;;;;;;7.40;3.70;;;;;;;17.02;52.32;101987.06;5041087;28;20053;-71
2022/05/14 05:36:49;;;;;;;11.70;3.60;;;;;;;17.58;51.65;101993.69;5038592;28;20053;-69
2022/05/14 05:39:17;;;;;;;9.23;3.38;;;;;;;18.23;49.12;101988.31;5038698;28;20037;-68
2022/05/14 05:41:44;;;;;;;10.25;3.95;;;;;;;18.77;47.75;101982.31;5036025;28;20045;-69
2022/05/14 05:44:13;;;;;;;16.85;4.15;;;;;;;19.20;46.98;101982.94;5036946;28;20044;-71
2022/05/14 05:47:07;;;;;;;9.45;3.80;;;;;;;19.55;46.28;101975.00;5045962;28;20045;-71
2022/05/14 05:49:38;;;;;;;10.52;4.60;;;;;;;19.92;45.08;101985.66;5034793;28;20059;-70
2022/05/14 05:52:06;;;;;;;12.05;3.63;;;;;;;20.21;44.12;101983.28;5041070;28;20133;-71
2022/05/14 05:57:37;;;;;;;12.55;4.07;;;;;;;20.24;41.95;101985.78;5029054;28;20100;-71
2022/05/14 06:00:10;;;;;;;11.40;4.03;;;;;;;19.68;44.21;101995.78;5035182;28;20480;-69
2022/05/14 06:02:38;;;;;;;10.05;4.60;;;;;;;18.77;44.45;102009.03;5041736;28;20132;-70
2022/05/14 06:05:06;;;;;;;12.65;4.82;;;;;;;17.47;47.33;102007.50;5029066;28;20038;-71
2022/05/14 06:07:35;;;;;;;11.18;5.00;;;;;;;16.54;49.35;102008.38;5030869;28;20038;-69
2022/05/14 06:10:07;;;;;;;14.45;5.20;;;;;;;15.78;51.89;102011.00;5029087;28;20034;-70
2022/05/14 06:12:38;;;;;;;25.15;5.60;;;;;;;15.11;54.57;102014.03;5027888;28;20097;-70
2022/05/14 06:15:13;;;;;;;19.17;6.85;;;;;;;14.56;55.53;102020.00;5030130;28;20050;-70
2022/05/14 06:17:42;;;;;;;11.35;5.38;;;;;;;14.37;57.15;102022.31;5037529;28;20053;-70
2022/05/14 06:20:14;;;;;;;13.48;6.20;;;;;;;14.18;58.06;102020.19;5052616;28;20692;-70
2022/05/14 06:22:41;;;;;;;16.00;6.18;;;;;;;14.05;57.84;102022.25;5036744;28;20630;-71
2022/05/14 06:25:11;;;;;;;16.05;6.32;;;;;;;14.02;58.79;102024.13;5036239;28;20136;-71
2022/05/14 06:27:38;;;;;;;20.38;6.82;;;;;;;13.93;59.05;102026.09;5035529;28;20037;-70
2022/05/14 06:30:15;;;;;;;11.40;5.53;;;;;;;13.96;59.15;102018.09;5034470;28;20909;-72
2022/05/14 06:32:43;;;;;;;17.17;6.85;;;;;;;14.03;59.62;102021.44;5033672;28;20046;-69
2022/05/14 06:35:10;;;;;;;15.88;6.43;;;;;;;14.08;59.41;102023.97;5028383;28;20132;-70
2022/05/14 06:37:38;;;;;;;16.73;7.72;;;;;;;14.10;59.86;102022.13;5029597;28;20132;-69
2022/05/14 06:40:07;;;;;;;13.23;7.20;;;;;;;14.23;60.37;102022.69;5034842;28;20048;-71
2022/05/14 06:42:37;;;;;;;17.10;6.65;;;;;;;14.36;59.73;102024.09;5034709;28;20125;-70
2022/05/14 06:45:07;;;;;;;16.80;6.65;;;;;;;14.57;59.34;102021.75;5035106;28;20045;-71
2022/05/14 06:47:35;;;;;;;19.60;7.55;;;;;;;14.70;59.82;102025.84;5030016;28;20038;-71
2022/05/14 06:50:05;;;;;;;15.77;7.50;;;;;;;14.78;59.55;102024.72;5031987;28;20033;-69
2022/05/14 06:52:33;;;;;;;19.98;7.75;;;;;;;14.90;59.53;102032.34;5040824;28;20030;-69
2022/05/14 06:55:01;;;;;;;17.88;7.55;;;;;;;15.00;59.53;102031.16;5045793;28;20052;-69
2022/05/14 06:57:33;;;;;;;16.50;8.25;;;;;;;14.96;59.83;102039.25;5031942;28;20038;-72
2022/05/14 07:00:00;;;;;;;20.08;8.65;;;;;;;14.97;60.44;102039.19;5032333;28;20045;-71
2022/05/14 07:02:28;;;;;;;19.25;7.88;;;;;;;14.96;60.21;102039.25;5040021;28;20037;-70
2022/05/14 07:07:44;;;;;;;17.50;7.47;;;;;;;15.04;59.98;102031.94;5044805;28;20609;-71
2022/05/14 07:10:11;;;;;;;15.10;7.60;;;;;;;15.19;59.83;102038.56;5031879;28;20043;-72
2022/05/14 07:12:38;;;;;;;20.23;7.88;;;;;;;15.34;59.49;102031.91;5034998;28;20546;-69
2022/05/14 07:15:08;;;;;;;20.98;7.47;;;;;;;15.43;59.41;102028.09;5037923;28;20049;-69
2022/05/14 07:17:36;;;;;;;19.02;7.70;;;;;;;15.53;59.01;102038.38;5042364;28;20112;-70
2022/05/14 07:20:04;;;;;;;19.13;8.05;;;;;;;15.59;59.37;102029.31;5044316;28;20448;-70
2022/05/14 07:22:32;;;;;;;21.80;8.00;;;;;;;15.55;59.49;102035.69;5042414;28;20518;-70
2022/05/14 07:25:00;;;;;;;22.33;7.90;;;;;;;15.67;59.12;102035.25;5042480;28;20045;-70
2022/05/14 07:27:27;;;;;;;16.60;7.45;;;;;;;15.89;58.69;102017.78;5042045;28;20072;-71
2022/05/14 07:29:54;;;;;;;24.30;8.35;;;;;;;16.02;58.47;102027.06;5046281;28;20042;-68
2022/05/14 07:32:22;;;;;;;19.58;8.35;;;;;;;16.01;58.16;102028.00;5041886;28;20064;-70
2022/05/14 07:34:49;;;;;;;16.27;7.60;;;;;;;16.13;58.14;102034.66;5046087;28;20075;-71
2022/05/14 07:37:24;;;;;;;20.33;8.40;;;;;;;16.26;57.97;102041.31;5040865;28;20115;-70
2022/05/14 07:40:08;;;;;;;16.92;7.40;;;;;;;16.39;57.95;102033.75;5043181;28;20038;-69
2022/05/14 07:42:57;;;;;;;21.43;8.37;;;;;;;16.59;57.51;102026.84;5045549;28;20486;-69
2022/05/14 07:45:58;;;;;;;21.35;8.90;;;;;;;16.76;57.03;102024.41;5041162;28;20069;-69
2022/05/14 07:48:33;;;;;;;22.13;8.20;;;;;;;16.95;56.78;102038.84;5031154;28;20520;-70
2022/05/14 07:51:04;;;;;;;21.85;8.27;;;;;;;17.07;55.99;102041.91;5039425;28;20467;-71
2022/05/14 07:53:34;;;;;;;20.40;8.10;;;;;;;17.08;55.90;102040.13;5035119;28;20046;-70
2022/05/14 07:56:04;;;;;;;19.58;8.10;;;;;;;17.06;56.03;102045.50;5041015;28;20534;-69
2022/05/14 07:58:31;;;;;;;18.02;7.82;;;;;;;17.07;56.24;102039.25;5047914;28;20038;-69
2022/05/14 08:00:59;;;;;;;21.25;7.72;;;;;;;17.08;55.94;102045.47;5041647;28;20788;-69
2022/05/14 08:03:28;;;;;;;20.80;8.90;;;;;;;17.12;55.86;102046.19;5039167;28;20048;-70
2022/05/14 08:05:56;;;;;;;19.23;8.30;;;;;;;17.21;56.13;102049.34;5042864;28;20449;-70
2022/05/14 08:08:24;;;;;;;18.58;8.05;;;;;;;17.20;55.24;102046.75;5044343;28;20041;-68
2022/05/14 08:10:52;;;;;;;19.77;8.30;;;;;;;17.20;55.47;102044.97;5041825;28;20712;-70
2022/05/14 08:13:25;;;;;;;16.50;8.02;;;;;;;17.27;55.68;102047.41;5046673;28;20044;-69
2022/05/14 08:15:53;;;;;;;22.33;8.63;;;;;;;17.38;55.41;102039.84;5034467;28;20045;-68
2022/05/14 08:18:21;;;;;;;25.20;8.93;;;;;;;17.33;54.98;102042.69;5035052;28;20713;-69
2022/05/14 08:20:50;;;;;;;22.55;8.93;;;;;;;17.32;55.02;102048.97;5036852;28;20034;-68
2022/05/14 08:26:08;;;;;;;20.50;8.40;;;;;;;17.51;55.19;102048.22;5043056;28;20049;-68
2022/05/14 08:28:35;;;;;;;19.38;7.90;;;;;;;17.61;54.78;102043.34;5040651;28;20049;-70
2022/05/14 08:31:02;;;;;;;19.88;8.60;;;;;;;17.74;54.26;102046.41;5040738;28;20041;-70
2022/05/14 08:33:29;;;;;;;22.70;8.55;;;;;;;17.85;54.21;102041.50;5037318;28;20044;-68
2022/05/14 08:35:56;;;;;;;19.42;8.25;;;;;;;17.90;54.02;102044.81;5037632;28;20078;-69
2022/05/14 08:38:23;;;;;;;21.00;8.77;;;;;;;17.97;53.78;102046.31;5046288;28;20502;-71
2022/05/14 08:40:58;;;;;;;18.30;7.88;;;;;;;18.10;54.01;102036.03;5031592;28;20042;-70
2022/05/14 08:43:45;;;;;;;17.50;7.97;;;;;;;18.34;53.41;102033.19;5030284;28;20048;-68
2022/05/14 08:46:19;;;;;;;18.45;7.95;;;;;;;18.60;53.02;102040.03;5041359;28;20045;-71
2022/05/14 08:48:55;;;;;;;20.05;8.15;;;;;;;18.83;52.91;102045.25;5047170;28;20998;-69
2022/05/14 08:51:33;;;;;;;24.25;7.88;;;;;;;19.01;51.18;102049.78;5049270;28;20149;-70
2022/05/14 08:54:02;;;;;;;17.85;8.07;;;;;;;19.18;51.44;102046.31;5048090;28;20606;-69
2022/05/14 08:56:41;;;;;;;20.70;8.32;;;;;;;19.26;50.40;102037.06;5046143;28;20960;-68
2022/05/14 08:59:49;;;;;;;17.00;8.32;;;;;;;19.32;50.98;102031.41;5049149;28;20512;-69
2022/05/14 09:02:27;;;;;;;16.13;7.63;;;;;;;19.53;50.93;102035.72;5037841;28;20159;-70
2022/05/14 09:05:11;;;;;;;15.02;7.28;;;;;;;19.78;50.47;102036.28;5028910;28;20100;-70
2022/05/14 09:07:40;;;;;;;21.57;8.03;;;;;;;19.92;49.00;102035.63;5060497;28;20041;-69
2022/05/14 09:10:28;;;;;;;18.30;7.88;;;;;;;20.06;49.26;102037.59;5047859;28;20040;-70
2022/05/14 09:13:20;;;;;;;21.02;7.88;;;;;;;20.26;49.01;102033.88;5031057;28;20037;-69
2022/05/14 09:15:59;;;;;;;14.70;7.50;;;;;;;20.43;48.79;102031.19;5038766;28;20087;-68
2022/05/14 09:18:33;;;;;;;16.45;7.72;;;;;;;20.55;47.73;102044.88;5048796;28;20969;-70
2022/05/14 09:21:18;;;;;;;19.02;8.32;;;;;;;20.62;48.03;102033.75;5048283;28;20553;-71
2022/05/14 09:24:16;;;;;;;17.20;7.43;;;;;;;20.74;46.80;102034.91;5048080;28;20084;-68
2022/05/14 09:26:45;;;;;;;15.95;7.40;;;;;;;20.79;47.15;102040.00;5043961;28;20064;-70
2022/05/14 09:29:12;;;;;;;16.77;7.55;;;;;;;20.86;47.05;102040.56;5049035;28;20067;-69
2022/05/14 09:32:02;;;;;;;16.15;7.25;;;;;;;20.95;45.82;102029.31;5039474;28;20045;-70
2022/05/14 09:34:35;;;;;;;18.00;7.40;;;;;;;20.98;45.59;102036.31;5029967;28;20041;-69
2022/05/14 09:37:11;;;;;;;15.20;6.80;;;;;;;20.92;45.83;102032.16;5029023;28;20100;-69
2022/05/14 09:39:39;;;;;;;16.95;7.15;;;;;;;21.03;46.13;102027.06;5035010;28;20037;-71
2022/05/14 09:42:29;;;;;;;16.35;7.22;;;;;;;21.33;45.25;102030.78;5048693;28;20037;-70
2022/05/14 09:44:57;;;;;;;19.52;7.45;;;;;;;21.19;45.57;102034.28;5029201;28;20048;-71
2022/05/14 09:47:30;;;;;;;14.80;6.93;;;;;;;21.37;44.84;102035.91;5029236;28;20054;-69
2022/05/14 09:50:05;;;;;;;16.52;7.05;;;;;;;21.51;45.06;102027.03;5029345;28;20050;-70
2022/05/14 09:52:36;;;;;;;17.55;6.95;;;;;;;21.72;43.61;102030.31;5028494;28;20049;-69
2022/05/14 09:55:08;;;;;;;15.35;6.50;;;;;;;21.93;44.21;102038.03;5027928;28;20069;-71
2022/05/14 09:57:55;;;;;;;16.95;7.07;;;;;;;22.18;43.27;102033.91;5031690;28;20041;-71
2022/05/14 10:00:33;;;;;;;15.93;6.97;;;;;;;22.39;42.11;102030.84;5049360;28;20041;-71
2022/05/14 10:03:31;;;;;;;19.85;7.57;;;;;;;22.35;42.31;102027.50;5049897;28;20041;-70
2022/05/14 10:06:22;;;;;;;16.80;7.60;;;;;;;22.60;41.92;102034.94;5035368;28;20053;-68
2022/05/14 10:09:22;;;;;;;19.45;7.75;;;;;;;22.96;42.32;102030.84;5038601;28;20551;-70
2022/05/14 10:12:07;;;;;;;21.33;7.70;;;;;;;23.30;41.13;102022.44;5045873;28;20458;-71
2022/05/14 10:14:53;;;;;;;17.38;6.75;;;;;;;23.70;41.21;102025.19;5044735;28;20049;-71
2022/05/14 10:17:40;;;;;;;21.55;7.00;;;;;;;23.96;38.67;102019.88;5028644;28;20128;-70
2022/05/14 10:20:25;;;;;;;18.15;6.63;;;;;;;24.19;39.57;102020.09;5028251;28;20053;-69
2022/05/14 10:26:46;;;;;;;17.00;5.95;;;;;;;24.36;38.03;102018.94;5030123;28;20026;-69
2022/05/14 10:29:44;;;;;;;14.18;6.38;;;;;;;23.76;38.55;102021.19;5028204;28;20042;-70
2022/05/14 10:32:21;;;;;;;22.35;6.60;;;;;;;23.35;39.44;102014.94;5028980;28;20038;-70
2022/05/14 10:35:29;;;;;;;17.85;5.68;;;;;;;22.91;39.86;102027.59;5028297;28;20518;-68
2022/05/14 10:38:21;;;;;;;17.13;6.47;;;;;;;22.65;40.38;102018.50;5028340;28;20527;-69
2022/05/14 10:41:02;;;;;;;14.93;5.97;;;;;;;22.94;40.11;102019.31;5027788;28;20046;-71
2022/05/14 10:44:27;;;;;;;16.20;5.60;;;;;;;23.33;38.43;102011.47;5037115;28;20041;-70
2022/05/14 10:47:02;;;;;;;13.15;4.50;;;;;;;23.72;38.91;102014.31;5037547;28;20049;-71
2022/05/14 10:50:13;;;;;;;12.63;4.95;;;;;;;24.38;36.68;102018.81;5046505;28;20065;-70
2022/05/14 10:52:44;;;;;;;43.20;6.53;;;;;;;24.77;36.71;102012.44;5046554;28;20053;-70
2022/05/14 10:55:29;;;;;;;12.75;5.30;;;;;;;24.82;34.66;102006.72;5043332;28;20133;-70
2022/05/14 10:58:07;;;;;;;19.13;5.30;;;;;;;24.18;35.81;102013.84;5030916;28;20096;-69
2022/05/14 11:00:43;;;;;;;11.95;5.40;;;;;;;23.51;37.04;102016.59;5049672;28;20049;-72
2022/05/14 11:03:23;;;;;;;16.25;5.53;;;;;;;23.22;37.68;102019.38;5046750;28;20045;-71
2022/05/14 11:06:09;;;;;;;17.17;5.90;;;;;;;23.46;37.73;102019.59;5037405;28;20050;-73
2022/05/14 11:08:45;;;;;;;14.35;6.15;;;;;;;23.83;37.23;102013.56;5040731;28;20034;-71
2022/05/14 11:11:29;;;;;;;15.68;5.72;;;;;;;24.09;36.48;102006.41;5030833;28;20048;-70
2022/05/14 11:14:06;;;;;;;13.93;5.60;;;;;;;23.97;35.72;102018.91;5038786;28;20622;-70
2022/05/14 11:16:46;;;;;;;13.70;5.50;;;;;;;23.46;37.37;102021.44;5049114;28;21015;-70
2022/05/14 11:19:31;;;;;;;19.10;5.07;;;;;;;23.48;37.02;102020.34;5051278;28;20042;-71
2022/05/14 11:22:00;;;;;;;13.32;5.68;;;;;;;23.47;36.25;102018.63;5032101;28;20085;-70
2022/05/14 11:24:42;;;;;;;13.35;5.35;;;;;;;23.68;36.47;102007.38;5029996;28;20042;-68
2022/05/14 11:27:10;;;;;;;12.73;5.30;;;;;;;23.70;37.32;102014.41;5048706;28;20037;-71
2022/05/14 11:30:01;;;;;;;14.20;5.60;;;;;;;23.63;36.69;102014.94;5044916;28;20046;-71
2022/05/14 11:32:44;;;;;;;19.33;4.95;;;;;;;24.33;35.50;102016.44;5031439;28;20065;-70
2022/05/14 11:35:14;;;;;;;17.67;5.10;;;;;;;24.65;33.68;102014.13;5041433;28;20049;-71
2022/05/14 11:37:47;;;;;;;13.27;5.45;;;;;;;24.59;34.10;102006.50;5066131;28;20578;-69
2022/05/14 11:40:28;;;;;;;15.60;5.32;;;;;;;24.46;34.09;102005.66;5038816;28;20532;-68
2022/05/14 11:43:28;;;;;;;13.50;4.93;;;;;;;24.94;33.59;102015.72;5034674;28;20069;-69
2022/05/14 11:46:36;;;;;;;13.25;4.82;;;;;;;25.23;32.47;102020.81;5032420;28;20089;-69
2022/05/14 11:49:12;;;;;;;12.30;4.68;;;;;;;25.52;32.87;102017.78;5033697;28;20085;-71
2022/05/14 11:52:20;;;;;;;12.27;4.95;;;;;;;25.86;31.45;102007.97;5050245;28;20051;-70
2022/05/14 11:55:06;;;;;;;10.27;4.97;;;;;;;26.10;31.81;102007.06;5054171;28;20052;-69
2022/05/14 11:57:43;;;;;;;12.98;4.28;;;;;;;26.39;31.79;102009.31;5046045;28;20042;-68
2022/05/14 12:00:17;;;;;;;12.40;4.78;;;;;;;26.05;32.20;102009.22;5051340;28;20038;-69
2022/05/14 12:03:12;;;;;;;14.02;5.00;;;;;;;25.83;32.48;102010.91;5057110;28;20100;-69
2022/05/14 12:05:52;;;;;;;10.63;4.50;;;;;;;25.84;32.34;102001.81;5053970;28;20543;-69
2022/05/14 12:08:54;;;;;;;12.48;4.78;;;;;;;25.48;32.27;102005.53;5042084;28;20034;-69
2022/05/14 12:11:47;;;;;;;15.20;4.32;;;;;;;25.00;32.93;102003.63;5045308;28;20108;-69